Flight Track Log - Related Links

Times and Time Zones

All times are in EDT time to prevent confusion due to time zone crossing. See the N534QS flight status page for this flight to view local times or setup timezone preferences in your user account.

Time Position Orientation Groundspeed Altitude Reporting Facility
EDT Latitude Longitude Course Direction KTS MPH feet Rate Location/Type
Mon 10:05:27 AM 40.8167 -73.9000 349° North 192 221 3,500  Level New York TRACON
Mon 10:06:27 AM 40.8833 -73.9167 349° North 244 281 7,100 3,500 Climbing New York TRACON
Mon 10:07:27 AM 40.9333 -73.9500 333° Northwest 273 314 10,500 2,571 Climbing New York TRACON
Mon 10:09:29 AM 41.0639 -74.1311 314° West 339 390 14,900 2,120 Climbing New York Center
Mon 10:10:31 AM 41.0939 -74.2456 289° West 339 390 17,000 1,950 Climbing New York Center
Mon 10:11:29 AM 41.1069 -74.3647 278° West 327 376 18,800 1,983 Climbing New York Center
Mon 10:12:29 AM 41.1175 -74.4892 276° West 333 383 20,900 2,000 Climbing New York Center
Mon 10:13:29 AM 41.1303 -74.6167 278° West 345 397 22,800 1,934 Climbing New York Center
Mon 10:14:30 AM 41.1594 -74.7422 287° West 355 409 24,800 1,537 Climbing New York Center
Mon 10:15:30 AM 41.2094 -74.8636 299° West 373 429 25,900 1,438 Climbing New York Center
Mon 10:16:31 AM 41.2575 -74.9769 299° West 384 442 27,700 1,850 Climbing New York Center
Mon 10:17:30 AM 41.3133 -75.1019 301° West 390 449 29,600 1,785 Climbing New York Center
Mon 10:18:32 AM 41.3689 -75.2356 299° West 401 461 31,300 1,450 Climbing New York Center
Mon 10:19:30 AM 41.4281 -75.3750 300° West 413 475 32,500 1,412 Climbing New York Center
Mon 10:20:31 AM 41.4869 -75.5175 299° West 436 502 34,100 1,488 Climbing New York Center
Mon 10:21:31 AM 41.5361 -75.6928 291° West 446 513 35,500 1,250 Climbing New York Center
Mon 10:22:31 AM 41.5794 -75.8486 290° West 456 525 36,600 1,119 Climbing New York Center
Mon 10:23:29 AM 41.6228 -76.0017 291° West 456 525 37,700 1,109 Climbing New York Center
Mon 10:24:30 AM 41.6661 -76.1522 291° West 456 525 38,800 942 Climbing New York Center
Mon 10:25:30 AM 41.7108 -76.3114 291° West 456 525 39,600 600 Climbing New York Center
Mon 10:26:30 AM 41.7533 -76.4706 290° West 456 525 40,000 140 Climbing New York Center
Mon 10:28:21 AM 41.8386 -76.7758 291° West 455 524 40,000  Level Cleveland Center
Mon 10:29:21 AM 41.8856 -76.9375 291° West 465 535 40,000  Level Cleveland Center
Mon 10:30:21 AM 41.9281 -77.0969 290° West 465 535 40,000  Level Cleveland Center
Mon 10:31:21 AM 41.9725 -77.2594 290° West 460 529 40,000  Level Cleveland Center
Mon 10:32:21 AM 42.0144 -77.4194 289° West 460 529 40,000  Level Cleveland Center
Mon 10:33:21 AM 42.0583 -77.5822 290° West 460 529 40,000  Level Cleveland Center
Mon 10:34:21 AM 42.1022 -77.7453 290° West 460 529 40,000  Level Cleveland Center
Mon 10:35:21 AM 42.1389 -77.8892 289° West 460 529 40,000  Level Cleveland Center
Mon 10:36:21 AM 42.1822 -78.0500 290° West 460 529 40,000  Level Cleveland Center
Mon 10:37:21 AM 42.2231 -78.2083 289° West 460 529 40,000  Level Cleveland Center
Mon 10:38:21 AM 42.2639 -78.3694 289° West 455 524 40,000  Level Cleveland Center
Mon 10:39:21 AM 42.3044 -78.5281 289° West 455 524 40,000  Level Cleveland Center
Mon 10:40:21 AM 42.3447 -78.6897 289° West 461 531 40,000  Level Cleveland Center
Mon 10:41:21 AM 42.3847 -78.8517 289° West 461 531 40,000  Level Cleveland Center
Mon 10:42:21 AM 42.4081 -79.0367 280° West 456 525 40,000  Level Cleveland Center
Mon 10:43:21 AM 42.4333 -79.2131 281° West 464 534 40,000  Level Cleveland Center
Mon 10:44:21 AM 42.4561 -79.3786 281° West 464 534 40,000  Level Cleveland Center
Mon 10:45:21 AM 42.4825 -79.5331 283° West 469 540 40,000  Level Cleveland Center
Mon 10:46:21 AM 42.5006 -79.7017 278° West 469 540 40,000  Level Cleveland Center
Mon 10:47:21 AM 42.5269 -79.8733 282° West 469 540 40,000  Level Cleveland Center
Mon 10:48:21 AM 42.5467 -80.0589 278° West 461 531 40,000  Level Cleveland Center
Mon 10:49:21 AM 42.5681 -80.2336 279° West 472 543 40,000  Level Cleveland Center
Mon 10:50:21 AM 42.5914 -80.4056 281° West 465 535 40,000  Level Cleveland Center
Mon 10:51:21 AM 42.6122 -80.5719 280° West 460 529 40,000  Level Cleveland Center
Mon 10:52:21 AM 42.6353 -80.7442 280° West 460 529 40,000  Level Cleveland Center
Mon 10:53:21 AM 42.6597 -80.9164 281° West 466 536 40,000  Level Cleveland Center
Mon 10:54:21 AM 42.6864 -81.0858 282° West 466 536 40,000  Level Cleveland Center
Mon 10:55:21 AM 42.7144 -81.2558 283° West 472 543 40,000  Level Cleveland Center
Mon 10:56:21 AM 42.7364 -81.4086 281° West 467 537 40,000  Level Cleveland Center
Mon 10:57:21 AM 42.7642 -81.5842 282° West 472 543 40,000 150 Level Cleveland Center
Mon 10:58:21 AM 42.7919 -81.7544 283° West 465 535 40,300 550 Climbing Cleveland Center
Mon 10:59:21 AM 42.8189 -81.9475 281° West 470 541 41,100 800 Climbing Cleveland Center
Mon 11:00:21 AM 42.8419 -82.1150 281° West 470 541 41,900 750 Climbing Cleveland Center
Mon 11:01:21 AM 42.8686 -82.2856 282° West 470 541 42,600 550 Climbing Cleveland Center
Mon 11:02:21 AM 42.8931 -82.4564 281° West 470 541 43,000 200 Climbing Cleveland Center
Mon 11:03:21 AM 42.9172 -82.6214 281° West 464 534 43,000  Level Cleveland Center
Mon 11:04:21 AM 42.9433 -82.7897 282° West 458 527 43,000  Level Cleveland Center
Mon 11:05:21 AM 42.9653 -82.9550 280° West 458 527 43,000  Level Cleveland Center
Mon 11:06:21 AM 42.9886 -83.1233 281° West 453 521 43,000  Level Cleveland Center
Mon 11:07:21 AM 43.0139 -83.2919 282° West 448 516 43,000  Level Cleveland Center
Mon 11:08:21 AM 43.0333 -83.4464 280° West 454 522 43,000  Level Cleveland Center
Mon 11:09:21 AM 43.0561 -83.6150 281° West 454 522 43,000  Level Cleveland Center
Mon 11:10:21 AM 43.0786 -83.7839 280° West 454 522 43,000  Level Cleveland Center
Mon 11:11:21 AM 43.1008 -83.9528 280° West 448 516 43,000  Level Cleveland Center
Mon 11:13:13 AM 43.1422 -84.2647 280° West 454 522 43,000  Level Chicago Center
Mon 11:14:15 AM 43.1639 -84.4353 280° West 456 525 43,000  Level Chicago Center
Mon 11:15:17 AM 43.1856 -84.6056 280° West 457 526 43,000  Level Chicago Center
Mon 11:16:19 AM 43.2114 -84.8114 280° West 459 528 43,000  Level Chicago Center
Mon 11:17:21 AM 43.2325 -84.9828 280° West 459 528 43,000  Level Chicago Center
Mon 11:18:22 AM 43.2531 -85.1528 279° West 456 525 43,000  Level Chicago Center
Mon 11:19:24 AM 43.2731 -85.3231 279° West 456 525 43,000  Level Chicago Center
Mon 11:20:26 AM 43.2936 -85.4922 280° West 453 521 43,000  Level Chicago Center
Mon 11:21:28 AM 43.3131 -85.6619 279° West 456 525 43,000  Level Chicago Center
Mon 11:22:30 AM 43.3361 -85.8650 279° West 455 524 43,000  Level Chicago Center
Mon 11:23:32 AM 43.3558 -86.0356 279° West 458 527 43,000  Level Chicago Center
Mon 11:24:34 AM 43.3750 -86.2050 279° West 456 525 43,000  Level Chicago Center
Mon 11:25:36 AM 43.3942 -86.3764 279° West 458 527 43,000  Level Chicago Center
Mon 11:26:37 AM 43.4128 -86.5475 279° West 458 527 43,000  Level Chicago Center
Mon 11:27:39 AM 43.4350 -86.7533 279° West 456 525 43,000  Level Chicago Center
Mon 11:28:41 AM 43.4531 -86.9272 278° West 461 531 43,000  Level Chicago Center
Mon 11:29:43 AM 43.4708 -87.1014 278° West 463 533 43,000  Level Chicago Center
Mon 11:30:45 AM 43.4892 -87.2758 278° West 462 532 43,000  Level Chicago Center
Mon 11:31:47 AM 43.5078 -87.4764 277° West 461 531 43,000  Level Chicago Center
Mon 11:32:49 AM 43.5256 -87.6508 278° West 459 528 43,000  Level Chicago Center
Mon 11:33:51 AM 43.5417 -87.8239 277° West 455 524 43,000  Level Chicago Center
Mon 11:34:53 AM 43.5583 -87.9969 278° West 455 524 43,000  Level Chicago Center
Mon 11:35:55 AM 43.5739 -88.1694 277° West 456 525 43,000  Level Chicago Center
Mon 11:36:56 AM 43.5925 -88.3706 277° West 457 526 43,000  Level Chicago Center
Mon 11:37:58 AM 43.6083 -88.5425 277° West 462 532 43,000  Level Chicago Center
Mon 11:39:00 AM 43.6242 -88.7156 277° West 462 532 43,000  Level Chicago Center
Mon 11:40:02 AM 43.6417 -88.8858 278° West 453 521 43,000  Level Chicago Center
Mon 11:41:04 AM 43.6814 -89.0753 286° West 443 510 43,000  Level Chicago Center
Mon 11:42:06 AM 43.7147 -89.2422 285° West 450 518 43,000  Level Chicago Center
Mon 11:43:20 AM 43.7550 -89.4372 286° West 452 520 43,000  Level Minneapolis Center
Mon 11:44:22 AM 43.7886 -89.6028 286° West 449 517 43,000  Level Minneapolis Center
Mon 11:45:24 AM 43.8267 -89.7975 285° West 448 516 43,000  Level Minneapolis Center
Mon 11:46:25 AM 43.8603 -89.9633 286° West 448 516 43,000  Level Minneapolis Center
Mon 11:47:27 AM 43.8925 -90.1283 285° West 445 512 43,000  Level Minneapolis Center
Mon 11:48:29 AM 43.9228 -90.2883 285° West 434 499 43,000  Level Minneapolis Center
Mon 11:49:31 AM 43.9544 -90.4467 286° West 428 493 43,000  Level Minneapolis Center
Mon 11:50:33 AM 43.9839 -90.5997 285° West 428 493 43,000  Level Minneapolis Center
Mon 11:51:34 AM 44.0197 -90.7900 285° West 427 491 43,000  Level Minneapolis Center
Mon 11:52:36 AM 44.0494 -90.9489 285° West 430 495 43,000  Level Minneapolis Center
Mon 11:53:38 AM 44.0806 -91.1075 285° West 429 494 43,000  Level Minneapolis Center
Mon 11:54:40 AM 44.1100 -91.2689 284° West 433 498 43,000  Level Minneapolis Center
Mon 11:55:42 AM 44.1400 -91.4322 284° West 438 504 43,000  Level Minneapolis Center
Mon 11:56:43 AM 44.1756 -91.6300 284° West 442 509 43,000  Level Minneapolis Center
Mon 11:57:45 AM 44.2061 -91.7931 285° West 441 507 43,000  Level Minneapolis Center
Mon 11:58:47 AM 44.2356 -91.9606 284° West 447 514 43,000  Level Minneapolis Center
Mon 11:59:49 AM 44.2647 -92.1308 284° West 452 520 43,000  Level Minneapolis Center
Mon 12:00:51 PM 44.2933 -92.2975 284° West 447 514 43,000  Level Minneapolis Center
Mon 12:01:52 PM 44.3281 -92.4975 284° West 445 512 43,000  Level Minneapolis Center
Mon 12:02:54 PM 44.3575 -92.6597 284° West 434 499 43,000  Level Minneapolis Center
Mon 12:03:56 PM 44.3847 -92.8278 283° West 446 513 43,000  Level Minneapolis Center
Mon 12:04:57 PM 44.4136 -92.9944 284° West 448 516 43,000  Level Minneapolis Center
Mon 12:05:59 PM 44.4358 -93.1303 283° West 451 519 43,000  Level Minneapolis Center
Mon 12:07:01 PM 44.4683 -93.3328 283° West 449 517 43,000  Level Minneapolis Center
Mon 12:08:03 PM 44.5019 -93.5331 283° West 446 513 43,000  Level Minneapolis Center
Mon 12:09:04 PM 44.5267 -93.6847 283° West 445 512 43,000  Level Minneapolis Center
Mon 12:10:06 PM 44.5583 -93.8869 282° West 444 511 43,000  Level Minneapolis Center
Mon 12:11:08 PM 44.5856 -94.0542 283° West 442 509 43,000 146 Level Minneapolis Center
Mon 12:12:09 PM 44.6119 -94.2219 283° West 443 510 43,300 488 Climbing Minneapolis Center
Mon 12:13:11 PM 44.6378 -94.3931 282° West 449 517 44,000 629 Climbing Minneapolis Center
Mon 12:14:13 PM 44.6647 -94.5619 283° West 446 513 44,600 484 Climbing Minneapolis Center
Mon 12:15:15 PM 44.6892 -94.7322 281° West 446 513 45,000 195 Climbing Minneapolis Center
Mon 12:16:16 PM 44.7150 -94.9003 282° West 443 510 45,000  Level Minneapolis Center
Mon 12:17:18 PM 44.7472 -95.1083 282° West 452 520 45,000  Level Minneapolis Center
Mon 12:18:20 PM 44.7717 -95.2794 281° West 450 518 45,000  Level Minneapolis Center
Mon 12:19:22 PM 44.7958 -95.4497 281° West 447 514 45,000  Level Minneapolis Center
Mon 12:20:24 PM 44.8203 -95.6208 281° West 448 516 45,000  Level Minneapolis Center
Mon 12:21:26 PM 44.8453 -95.7928 282° West 450 518 45,000  Level Minneapolis Center
Mon 12:22:27 PM 44.8686 -95.9622 281° West 445 512 45,000  Level Minneapolis Center
Mon 12:23:29 PM 44.8972 -96.1681 281° West 449 517 45,000  Level Minneapolis Center
Mon 12:24:31 PM 44.9211 -96.3408 281° West 452 520 45,000  Level Minneapolis Center
Mon 12:25:33 PM 44.9444 -96.5136 281° West 451 519 45,000  Level Minneapolis Center
Mon 12:26:34 PM 44.9678 -96.6872 281° West 453 521 45,000  Level Minneapolis Center
Mon 12:27:36 PM 44.9900 -96.8636 280° West 458 527 45,000  Level Minneapolis Center
Mon 12:28:38 PM 45.0136 -97.0378 281° West 455 524 45,000  Level Minneapolis Center
Mon 12:29:40 PM 45.0411 -97.2469 281° West 454 522 45,000  Level Minneapolis Center
Mon 12:30:42 PM 45.0625 -97.4206 280° West 450 518 45,000  Level Minneapolis Center
Mon 12:31:44 PM 45.0844 -97.5931 280° West 448 516 45,000  Level Minneapolis Center
Mon 12:32:45 PM 45.1056 -97.7644 280° West 445 512 45,000  Level Minneapolis Center
Mon 12:33:47 PM 45.1267 -97.9369 280° West 447 514 45,000  Level Minneapolis Center
Mon 12:34:49 PM 45.1511 -98.1369 280° West 438 504 45,000  Level Minneapolis Center
Mon 12:35:51 PM 45.1697 -98.3008 279° West 427 491 45,000  Level Minneapolis Center
Mon 12:36:53 PM 45.1881 -98.4697 279° West 430 495 45,000  Level Minneapolis Center
Mon 12:37:55 PM 45.2083 -98.6350 280° West 429 494 45,000  Level Minneapolis Center
Mon 12:38:57 PM 45.2267 -98.8028 279° West 430 495 45,000  Level Minneapolis Center
Mon 12:39:59 PM 45.2458 -98.9694 279° West 430 495 45,000  Level Minneapolis Center
Mon 12:41:01 PM 45.2642 -99.1372 279° West 431 496 45,000  Level Minneapolis Center
Mon 12:42:03 PM 45.2864 -99.3392 279° West 433 498 45,000  Level Minneapolis Center
Mon 12:43:05 PM 45.3047 -99.5075 279° West 433 498 45,000  Level Minneapolis Center
Mon 12:44:07 PM 45.3225 -99.6750 279° West 433 498 45,000  Level Minneapolis Center
Mon 12:45:09 PM 45.3403 -99.8442 279° West 437 503 45,000  Level Minneapolis Center
Mon 12:46:11 PM 45.3578 -100.0136 278° West 439 505 45,000  Level Minneapolis Center
Mon 12:47:13 PM 45.3789 -100.2194 278° West 442 509 45,000  Level Minneapolis Center
Mon 12:48:15 PM 45.3950 -100.3914 278° West 443 510 45,000  Level Minneapolis Center
Mon 12:49:17 PM 45.4122 -100.5642 278° West 443 510 45,000  Level Minneapolis Center
Mon 12:50:19 PM 45.4283 -100.7375 278° West 444 511 45,000  Level Minneapolis Center
Mon 12:51:21 PM 45.4442 -100.9103 278° West 443 510 45,000  Level Minneapolis Center
Mon 12:52:23 PM 45.4631 -101.1192 277° West 443 510 45,000  Level Minneapolis Center
Mon 12:53:25 PM 45.4819 -101.2939 279° West 446 513 45,000  Level Minneapolis Center
Mon 12:54:27 PM 45.4981 -101.4675 278° West 444 511 45,000  Level Minneapolis Center
Mon 12:55:29 PM 45.5122 -101.6397 277° West 441 507 45,000  Level Minneapolis Center
Mon 12:56:31 PM 45.5283 -101.8117 278° West 440 506 45,000  Level Minneapolis Center
Mon 12:57:33 PM 45.5433 -101.9861 277° West 442 509 45,000  Level Minneapolis Center
Mon 12:58:35 PM 45.5594 -102.1922 276° West 438 504 45,000  Level Minneapolis Center
Mon 12:59:37 PM 45.5731 -102.3633 277° West 436 502 45,000  Level Minneapolis Center
Mon 01:00:39 PM 45.5869 -102.5364 277° West 438 504 45,000  Level Minneapolis Center
Mon 01:01:41 PM 45.6014 -102.7186 277° West 437 503 45,000  Level Minneapolis Center
Mon 01:02:43 PM 45.6139 -102.8897 276° West 435 501 45,000  Level Minneapolis Center
Mon 01:03:46 PM 45.6267 -103.0628 276° West 438 504 45,000  Level Minneapolis Center
Mon 01:04:28 PM 45.6339 -103.1667 276° West 438 504 45,000  Level Salt Lake Center
Mon 01:05:30 PM 45.6486 -103.3789 276° West 446 513 45,000  Level Salt Lake Center
Mon 01:06:31 PM 45.6606 -103.5525 276° West 441 507 45,000  Level Salt Lake Center
Mon 01:07:33 PM 45.6728 -103.7253 276° West 437 503 45,000  Level Salt Lake Center
Mon 01:08:35 PM 45.6847 -103.8967 276° West 435 501 45,000  Level Salt Lake Center
Mon 01:09:37 PM 45.6953 -104.0678 275° West 434 499 45,000  Level Salt Lake Center
Mon 01:10:38 PM 45.7067 -104.2411 275° West 437 503 45,000  Level Salt Lake Center
Mon 01:11:40 PM 45.7178 -104.4144 275° West 439 505 45,000  Level Salt Lake Center
Mon 01:12:42 PM 45.7306 -104.6111 275° West 431 496 45,000  Level Salt Lake Center
Mon 01:13:44 PM 45.7394 -104.7744 275° West 429 494 45,000  Level Salt Lake Center
Mon 01:14:45 PM 45.7506 -104.9675 275° West 434 499 45,000  Level Salt Lake Center
Mon 01:15:47 PM 45.7603 -105.1350 275° West 440 506 45,000  Level Salt Lake Center
Mon 01:16:49 PM 45.7719 -105.3314 275° West 441 507 45,000  Level Salt Lake Center
Mon 01:17:50 PM 45.7797 -105.4981 274° West 439 505 45,000  Level Salt Lake Center
Mon 01:18:52 PM 45.7917 -105.6942 275° West 441 507 45,000  Level Salt Lake Center
Mon 01:19:54 PM 45.7981 -105.8611 273° West 439 505 45,000  Level Salt Lake Center
Mon 01:20:56 PM 45.8039 -106.0494 273° West 428 493 45,000  Level Salt Lake Center
Mon 01:21:57 PM 45.8117 -106.2153 274° West 431 496 45,000  Level Salt Lake Center
Mon 01:22:59 PM 45.8197 -106.3808 274° West 435 501 45,000  Level Salt Lake Center
Mon 01:24:01 PM 45.8297 -106.5758 274° West 437 503 45,000  Level Salt Lake Center
Mon 01:25:02 PM 45.8375 -106.7428 274° West 440 506 45,000  Level Salt Lake Center
Mon 01:26:04 PM 45.8472 -106.9358 274° West 438 504 45,000  Level Salt Lake Center
Mon 01:27:06 PM 45.8539 -107.1025 273° West 437 503 45,000  Level Salt Lake Center
Mon 01:28:08 PM 45.8608 -107.2936 273° West 430 495 45,000  Level Salt Lake Center
Mon 01:29:09 PM 45.8669 -107.4553 273° West 426 490 45,000  Level Salt Lake Center
Mon 01:30:11 PM 45.8728 -107.6156 273° West 422 486 45,000  Level Salt Lake Center
Mon 01:31:13 PM 45.8783 -107.8039 272° West 423 487 45,000  Level Salt Lake Center
Mon 01:32:14 PM 45.8833 -107.9675 273° West 429 494 45,000  Level Salt Lake Center
Mon 01:33:16 PM 45.8900 -108.1556 273° West 424 488 45,000  Level Salt Lake Center
Mon 01:34:18 PM 45.8950 -108.3172 273° West 426 490 45,000  Level Salt Lake Center
Mon 01:35:20 PM 45.9022 -108.5064 273° West 427 491 45,000  Level Salt Lake Center
Mon 01:36:21 PM 45.9056 -108.6736 272° West 434 499 45,000  Level Salt Lake Center
Mon 01:37:23 PM 45.9086 -108.8625 271° West 426 490 45,000  Level Salt Lake Center
Mon 01:38:25 PM 45.9125 -109.0264 272° West 429 494 45,000  Level Salt Lake Center
Mon 01:39:27 PM 45.9172 -109.2153 272° West 424 488 45,000  Level Salt Lake Center
Mon 01:40:28 PM 45.9197 -109.3789 271° West 428 493 45,000  Level Salt Lake Center
Mon 01:41:30 PM 45.9228 -109.5436 272° West 431 496 45,000 290 Level Salt Lake Center
Mon 01:42:32 PM 45.9258 -109.7319 271° West 423 487 45,600 484 Climbing Salt Lake Center
Mon 01:43:34 PM 45.9278 -109.8972 271° West 432 497 46,000 484 Climbing Salt Lake Center
Mon 01:44:36 PM 45.9306 -110.0878 271° West 429 494 46,600 488 Climbing Salt Lake Center
Mon 01:45:37 PM 45.9322 -110.2519 271° West 430 495 47,000 195 Climbing Salt Lake Center
Mon 01:46:39 PM 45.9342 -110.4475 271° West 437 503 47,000  Level Salt Lake Center
Mon 01:47:41 PM 45.9358 -110.6178 271° West 444 511 47,000  Level Salt Lake Center
Mon 01:48:43 PM 45.9369 -110.7953 271° West 446 513 47,000  Level Salt Lake Center
Mon 01:49:45 PM 45.9378 -110.9681 270° West 439 505 47,000  Level Salt Lake Center
Mon 01:50:47 PM 45.9392 -111.1733 271° West 438 504 47,000  Level Salt Lake Center
Mon 01:51:49 PM 45.9394 -111.3481 270° West 445 512 47,000  Level Salt Lake Center
Mon 01:52:51 PM 45.9386 -111.5242 270° West 447 514 47,000  Level Salt Lake Center
Mon 01:53:53 PM 45.9381 -111.7008 270° West 444 511 47,000  Level Salt Lake Center
Mon 01:54:55 PM 45.9381 -111.8769 270° West 444 511 47,000  Level Salt Lake Center
Mon 01:55:57 PM 45.9369 -112.0931 270° West 449 517 47,000  Level Salt Lake Center
Mon 01:56:59 PM 45.9358 -112.2719 270° West 449 517 47,000  Level Salt Lake Center
Mon 01:58:01 PM 45.9344 -112.4525 269° West 452 520 47,000  Level Salt Lake Center
Mon 01:59:02 PM 45.9319 -112.6353 269° West 458 527 47,000  Level Salt Lake Center
Mon 02:00:04 PM 45.9303 -112.8136 269° West 449 517 47,000  Level Salt Lake Center
Mon 02:01:06 PM 45.9289 -112.9917 269° West 446 513 47,000  Level Salt Lake Center
Mon 02:02:08 PM 45.9264 -113.1708 269° West 450 518 47,000  Level Salt Lake Center
Mon 02:03:10 PM 45.9231 -113.3842 269° West 448 516 47,000  Level Salt Lake Center
Mon 02:04:12 PM 45.9206 -113.5611 269° West 445 512 47,000  Level Salt Lake Center
Mon 02:05:14 PM 45.9214 -113.7178 270° West 446 513 47,000  Level Salt Lake Center
Mon 02:06:16 PM 45.9492 -113.9308 281° West 452 520 47,000  Level Salt Lake Center
Mon 02:07:18 PM 45.9711 -114.1083 280° West 452 520 47,000  Level Salt Lake Center
Mon 02:08:20 PM 45.9931 -114.2858 280° West 452 520 47,000  Level Salt Lake Center
Mon 02:09:22 PM 46.0133 -114.4578 280° West 450 518 47,000  Level Salt Lake Center
Mon 02:10:24 PM 46.0372 -114.6578 280° West 454 522 47,000  Level Salt Lake Center
Mon 02:10:47 PM 46.0439 -114.7156 279° West 453 521 47,000  Level Seattle Center
Mon 02:11:48 PM 46.0681 -114.9172 280° West 457 526 47,000  Level Seattle Center
Mon 02:12:27 PM 46.0797 -115.0269 279° West 450 518 47,000  Level Salt Lake Center
Mon 02:13:29 PM 46.0989 -115.1939 279° West 445 512 47,000  Level Salt Lake Center
Mon 02:13:50 PM 46.1094 -115.2822 280° West 448 516 47,000  Level Seattle Center
Mon 02:14:51 PM 46.1283 -115.4525 279° West 450 518 47,000  Level Seattle Center
Mon 02:15:52 PM 46.1475 -115.6194 279° West 445 512 47,000  Level Seattle Center
Mon 02:16:54 PM 46.1672 -115.8108 279° West 443 510 47,000  Level Seattle Center
Mon 02:17:55 PM 46.1861 -115.9889 279° West 448 516 47,000  Level Seattle Center
Mon 02:18:56 PM 46.2050 -116.1675 279° West 450 518 47,000  Level Seattle Center
Mon 02:19:57 PM 46.2239 -116.3536 278° West 448 516 47,000  Level Seattle Center
Mon 02:20:58 PM 46.2411 -116.5239 278° West 450 518 47,000  Level Seattle Center
Mon 02:21:59 PM 46.2625 -116.7242 279° West 452 520 47,000  Level Seattle Center
Mon 02:23:00 PM 46.2883 -116.8961 282° West 457 526 47,000  Level Seattle Center
Mon 02:24:01 PM 46.3133 -117.0650 282° West 451 519 47,000  Level Seattle Center
Mon 02:25:02 PM 46.3425 -117.2603 282° West 446 513 47,000  Level Seattle Center
Mon 02:26:03 PM 46.3647 -117.4136 282° West 449 517 47,000  Level Seattle Center
Mon 02:27:04 PM 46.3894 -117.5894 282° West 448 516 47,000  Level Seattle Center
Mon 02:28:05 PM 46.4133 -117.7639 281° West 444 511 47,000  Level Seattle Center
Mon 02:29:06 PM 46.4422 -117.9697 282° West 437 503 47,000  Level Seattle Center
Mon 02:30:07 PM 46.4653 -118.1436 281° West 441 507 47,000  Level Seattle Center
Mon 02:31:08 PM 46.4900 -118.3183 282° West 443 510 47,000  Level Seattle Center
Mon 02:32:09 PM 46.5131 -118.4931 281° West 442 509 47,000  Level Seattle Center
Mon 02:33:11 PM 46.5356 -118.6661 281° West 439 505 47,000  Level Seattle Center
Mon 02:34:12 PM 46.5578 -118.8386 281° West 437 503 47,000 -393 Level Seattle Center
Mon 02:36:14 PM 46.6019 -119.1839 281° West 441 507 45,800 -1,016 Descending Seattle Center
Mon 02:37:15 PM 46.6250 -119.3617 281° West 450 518 43,900 -2,016 Descending Seattle Center
Mon 02:38:16 PM 46.6500 -119.5644 280° West 431 496 41,700 -1,967 Descending Seattle Center
Mon 02:39:17 PM 46.6689 -119.7269 280° West 414 476 39,900 -1,770 Descending Seattle Center
Mon 02:40:18 PM 46.6881 -119.8892 280° West 410 472 38,100 -1,820 Descending Seattle Center
Mon 02:41:19 PM 46.7072 -120.0506 280° West 408 470 36,200 -1,820 Descending Seattle Center
Mon 02:42:20 PM 46.7264 -120.2161 280° West 414 476 34,400 -1,770 Descending Seattle Center
Mon 02:43:21 PM 46.7464 -120.3783 280° West 410 472 32,600 -1,770 Descending Seattle Center
Mon 02:44:22 PM 46.7644 -120.5458 279° West 415 478 30,800 -1,770 Descending Seattle Center
Mon 02:45:23 PM 46.7808 -120.7061 279° West 408 470 29,000 -1,707 Descending Seattle Center
Mon 02:46:25 PM 46.8000 -120.8564 281° West 388 447 27,300 -1,659 Descending Seattle Center
Mon 02:47:26 PM 46.8367 -121.0061 290° West 398 458 25,600 -1,721 Descending Seattle Center
Mon 02:48:27 PM 46.9008 -121.1475 304° West 416 479 23,800 -1,967 Descending Seattle Center
Mon 02:49:28 PM 46.9769 -121.3078 305° West 403 464 21,600 -2,020 Descending Seattle Center
Mon 02:50:05 PM 47.0161 -121.3900 305° West 396 456 20,500 -1,672 Descending Seattle Center
Mon 02:50:29 PM 47.0381 -121.4389 303° West 394 453 19,900 -1,575 Descending Seattle Center
Mon 02:51:25 PM 47.0889 -121.5481 304° West 341 392 18,400 -1,487 Descending Seattle Center
Mon 02:52:26 PM 47.1419 -121.6653 304° West 317 365 17,000 -1,417 Descending Seattle Center
Mon 02:53:32 PM 47.1950 -121.7828 304° West 317 365 15,400 -1,228 Descending Seattle Center
Mon 02:54:33 PM 47.2444 -121.8872 305° West 315 362 14,400 -1,024 Descending Seattle Center
Mon 02:55:35 PM 47.2978 -122.0031 304° West 318 366 13,300 -1,033 Descending Seattle Center
Mon 02:56:35 PM 47.3464 -122.1106 304° West 315 362 12,300 -893 Descending Seattle Center
Mon 02:57:36 PM 47.4058 -122.1858 319° Northwest 306 352 11,500 -1,131 Descending Seattle Center
Mon 02:58:37 PM 47.4914 -122.1811 North 310 357 10,000 -1,512 Descending Seattle Center
Mon 02:59:39 PM 47.5750 -122.1761 North 285 328 8,400 -1,707 Descending Seattle Center
Mon 03:00:40 PM 47.6542 -122.1703 North 285 328 6,500 -1,750 Descending Seattle Center
Mon 03:01:39 PM 47.7228 -122.1906 349° North 258 297 4,900 -1,200 Descending Seattle Center
Mon 03:02:40 PM 47.7275 -122.2703 275° West 182 209 4,100 -466 Descending Seattle Center
Mon 03:03:35 PM 47.6975 -122.3100 222° Southwest 154 177 4,000 -52 Descending Seattle Center
Mon 03:04:36 PM 47.6547 -122.3172 186° South 142 163 4,000 -393 Level Seattle Center
Mon 03:05:37 PM 47.6125 -122.3175 180° South 156 180 3,200 -787 Descending Seattle Center
Mon 03:06:38 PM 47.5686 -122.3189 181° South 161 185 2,400 -828 Descending Seattle Center
Mon 03:07:33 PM 47.5264 -122.3192 180° South 162 186 1,600 -787 Descending Seattle Center
Mon 03:08:40 PM 47.4814 -122.3175 179° South 138 159 800 -526 Descending Seattle Center
Mon 03:09:50 PM 47.4511 -122.3200 183° South 90 104 400 -183 Descending Seattle Center
Mon 03:10:51 PM 47.4411 -122.3175 170° South 45 52 400  Level Seattle Center

Login

Don't have an account? Register now (free) for customized features, flight alerts, and more!